Time;durP1;ratioP1;P1;durP2;ratioP2;P2;SDS_P1;SDS_P2;PMS_P1;PMS_P2;Temp;Humidity;BMP_temperature;BMP_pressure;BME280_temperature;BME280_humidity;BME280_pressure;Samples;Min_cycle;Max_cycle;Signal;HPM_P1;HPM_P2
2021/08/06 00:00:32;;;;;;;3.60;1.02;;;;;;;;;;5012526;28;20049;-43
2021/08/06 00:02:57;;;;;;;1.90;0.90;;;;;;;;;;5012513;28;20036;-42
2021/08/06 00:05:23;;;;;;;8.90;1.63;;;;;;;;;;5012372;28;20120;-43
2021/08/06 00:07:48;;;;;;;1.52;1.08;;;;;;;;;;5028033;28;20026;-41
2021/08/06 00:10:16;;;;;;;3.13;1.33;;;;;;;;;;5012856;28;20025;-42
2021/08/06 00:12:44;;;;;;;2.13;1.17;;;;;;;;;;5012459;28;20092;-42
2021/08/06 00:15:13;;;;;;;1.77;1.05;;;;;;;;;;5012442;28;20683;-43
2021/08/06 00:17:38;;;;;;;1.65;0.80;;;;;;;;;;5012328;28;20528;-42
2021/08/06 00:20:07;;;;;;;1.05;0.63;;;;;;;;;;5012451;28;20032;-44
2021/08/06 00:22:36;;;;;;;1.08;0.70;;;;;;;;;;5012163;28;20057;-42
2021/08/06 00:25:03;;;;;;;0.95;0.63;;;;;;;;;;5012690;28;20049;-42
2021/08/06 00:27:30;;;;;;;3.33;0.57;;;;;;;;;;5016231;28;20029;-42
2021/08/06 00:29:55;;;;;;;0.75;0.50;;;;;;;;;;5016570;28;20022;-42
2021/08/06 00:32:21;;;;;;;1.35;0.50;;;;;;;;;;5016310;28;20026;-42
2021/08/06 00:34:47;;;;;;;0.77;0.40;;;;;;;;;;5014917;28;20021;-43
2021/08/06 00:37:13;;;;;;;0.50;0.38;;;;;;;;;;5031374;28;20022;-42
2021/08/06 00:39:44;;;;;;;1.50;0.43;;;;;;;;;;5016015;28;20054;-42
2021/08/06 00:42:10;;;;;;;0.88;0.57;;;;;;;;;;5016423;28;20427;-42
2021/08/06 00:44:36;;;;;;;0.65;0.40;;;;;;;;;;5014547;28;20029;-42
2021/08/06 00:47:02;;;;;;;4.22;0.60;;;;;;;;;;5031127;28;20080;-42
2021/08/06 00:49:28;;;;;;;1.23;0.40;;;;;;;;;;5031143;28;20366;-42
2021/08/06 00:51:53;;;;;;;1.27;0.60;;;;;;;;;;5031128;28;20040;-42
2021/08/06 00:54:23;;;;;;;0.20;0.20;;;;;;;;;;5015773;28;20048;-42
2021/08/06 00:57:05;;;;;;;0.50;0.40;;;;;;;;;;5030965;28;20095;-42
2021/08/06 00:59:37;;;;;;;3.75;0.50;;;;;;;;;;5015859;28;20030;-42
2021/08/06 01:02:25;;;;;;;0.77;0.45;;;;;;;;;;5030917;28;20172;-44
2021/08/06 01:04:55;;;;;;;0.68;0.40;;;;;;;;;;5030841;28;20083;-43
2021/08/06 01:07:29;;;;;;;0.50;0.40;;;;;;;;;;5014166;28;20121;-42
2021/08/06 01:10:03;;;;;;;0.68;0.40;;;;;;;;;;5030760;28;20036;-43
2021/08/06 01:12:54;;;;;;;0.50;0.43;;;;;;;;;;5030683;28;20073;-43
2021/08/06 01:15:21;;;;;;;0.30;0.30;;;;;;;;;;5030535;28;20065;-42
2021/08/06 01:17:47;;;;;;;1.27;0.52;;;;;;;;;;5014222;28;20054;-42
2021/08/06 01:20:17;;;;;;;1.25;0.50;;;;;;;;;;5014070;28;20038;-42
2021/08/06 01:22:42;;;;;;;0.98;0.55;;;;;;;;;;5013768;28;20050;-42
2021/08/06 01:25:15;;;;;;;1.73;0.70;;;;;;;;;;5015468;28;20042;-42
2021/08/06 01:27:51;;;;;;;3.72;0.60;;;;;;;;;;5030573;28;20052;-42
2021/08/06 01:30:21;;;;;;;2.80;0.85;;;;;;;;;;5015216;28;20076;-42
2021/08/06 01:32:47;;;;;;;0.40;0.30;;;;;;;;;;5030310;28;20026;-42
2021/08/06 01:35:21;;;;;;;0.80;0.70;;;;;;;;;;5030211;28;20030;-43
2021/08/06 01:37:47;;;;;;;1.02;0.50;;;;;;;;;;5028897;28;20037;-42
2021/08/06 01:40:13;;;;;;;1.55;0.82;;;;;;;;;;5013785;28;20373;-42
2021/08/06 01:43:00;;;;;;;1.73;0.80;;;;;;;;;;5030131;28;20030;-42
2021/08/06 01:45:31;;;;;;;1.95;0.68;;;;;;;;;;5029899;28;20037;-42
2021/08/06 01:48:00;;;;;;;0.88;0.60;;;;;;;;;;5015138;28;20025;-42
2021/08/06 01:50:36;;;;;;;1.65;0.70;;;;;;;;;;5013364;28;20080;-42
2021/08/06 01:53:10;;;;;;;1.27;0.30;;;;;;;;;;5013528;28;20538;-42
2021/08/06 01:55:44;;;;;;;0.60;0.60;;;;;;;;;;5029792;28;20037;-42
2021/08/06 01:58:13;;;;;;;1.83;0.68;;;;;;;;;;5014528;28;20484;-42
2021/08/06 02:00:44;;;;;;;6.85;1.17;;;;;;;;;;5029754;28;20125;-42
2021/08/06 02:03:10;;;;;;;1.50;0.60;;;;;;;;;;5013320;28;20488;-43
2021/08/06 02:05:36;;;;;;;0.63;0.30;;;;;;;;;;5013009;28;20030;-45
2021/08/06 02:08:14;;;;;;;1.77;0.68;;;;;;;;;;5029756;28;20026;-42
2021/08/06 02:10:50;;;;;;;5.90;0.85;;;;;;;;;;5014447;28;20065;-42
2021/08/06 02:13:19;;;;;;;0.80;0.52;;;;;;;;;;5029603;28;20022;-42
2021/08/06 02:15:47;;;;;;;0.63;0.40;;;;;;;;;;5014197;28;20380;-42
2021/08/06 02:18:16;;;;;;;2.05;0.63;;;;;;;;;;5013012;28;20022;-42
2021/08/06 02:20:54;;;;;;;0.45;0.30;;;;;;;;;;5012982;28;20370;-42
2021/08/06 02:23:23;;;;;;;0.50;0.40;;;;;;;;;;5029140;28;20141;-43
2021/08/06 02:25:50;;;;;;;4.35;0.50;;;;;;;;;;5012719;28;20121;-42
2021/08/06 02:28:16;;;;;;;0.60;0.40;;;;;;;;;;5029345;28;20065;-43
2021/08/06 02:30:41;;;;;;;0.30;0.30;;;;;;;;;;5012723;28;20438;-42
2021/08/06 02:33:07;;;;;;;3.67;0.50;;;;;;;;;;5013969;28;20389;-42
2021/08/06 02:35:32;;;;;;;1.40;0.40;;;;;;;;;;5012454;28;20099;-42
2021/08/06 02:37:58;;;;;;;1.10;0.55;;;;;;;;;;5012546;28;20026;-42
2021/08/06 02:40:23;;;;;;;1.42;0.65;;;;;;;;;;5013747;28;20065;-42
2021/08/06 02:42:50;;;;;;;0.30;0.30;;;;;;;;;;5013830;28;20034;-43
2021/08/06 02:45:16;;;;;;;1.48;0.70;;;;;;;;;;5012400;28;20053;-43
2021/08/06 02:47:42;;;;;;;3.83;0.57;;;;;;;;;;5013322;28;20034;-42
2021/08/06 02:50:08;;;;;;;3.95;0.68;;;;;;;;;;5013952;28;20409;-42
2021/08/06 02:52:33;;;;;;;2.53;0.30;;;;;;;;;;5028786;28;20113;-42
2021/08/06 02:54:59;;;;;;;0.70;0.50;;;;;;;;;;5013491;28;20145;-43
2021/08/06 02:57:25;;;;;;;0.50;0.40;;;;;;;;;;5028737;28;20066;-43
2021/08/06 02:59:51;;;;;;;1.50;0.40;;;;;;;;;;5012250;28;20029;-42
2021/08/06 03:02:18;;;;;;;0.43;0.40;;;;;;;;;;5028670;28;20029;-42
2021/08/06 03:04:44;;;;;;;0.20;0.20;;;;;;;;;;5028544;28;20476;-42
2021/08/06 03:07:13;;;;;;;2.50;0.40;;;;;;;;;;5013724;28;20026;-42
2021/08/06 03:09:38;;;;;;;1.70;0.35;;;;;;;;;;5013230;28;20032;-42
2021/08/06 03:12:04;;;;;;;0.28;0.22;;;;;;;;;;5028538;28;20034;-42
2021/08/06 03:14:35;;;;;;;0.32;0.30;;;;;;;;;;5028446;28;20028;-42
2021/08/06 03:17:02;;;;;;;0.40;0.30;;;;;;;;;;5011865;28;20420;-42
2021/08/06 03:19:28;;;;;;;0.45;0.32;;;;;;;;;;5011793;28;20022;-42
2021/08/06 03:21:55;;;;;;;0.65;0.43;;;;;;;;;;5028251;28;20550;-42
2021/08/06 03:24:20;;;;;;;2.35;0.40;;;;;;;;;;5011685;28;20054;-41
2021/08/06 03:26:46;;;;;;;0.50;0.30;;;;;;;;;;5027468;28;20480;-42
2021/08/06 03:29:13;;;;;;;4.50;0.30;;;;;;;;;;5011806;28;20444;-42
2021/08/06 03:31:38;;;;;;;2.55;0.45;;;;;;;;;;5028001;28;20091;-42
2021/08/06 03:34:04;;;;;;;0.30;0.30;;;;;;;;;;5011699;28;20034;-43
2021/08/06 03:36:31;;;;;;;1.77;0.38;;;;;;;;;;5011510;28;20030;-42
2021/08/06 03:38:57;;;;;;;0.70;0.43;;;;;;;;;;5011694;28;20022;-42
2021/08/06 03:41:23;;;;;;;1.20;0.30;;;;;;;;;;5027986;28;20079;-42
2021/08/06 03:43:51;;;;;;;0.75;0.20;;;;;;;;;;5011540;28;20037;-43
2021/08/06 03:46:17;;;;;;;1.85;0.57;;;;;;;;;;5012774;28;20149;-42
2021/08/06 03:48:43;;;;;;;1.00;0.60;;;;;;;;;;5011408;28;20022;-42
2021/08/06 03:51:09;;;;;;;0.25;0.25;;;;;;;;;;5028016;28;20079;-42
2021/08/06 03:53:35;;;;;;;1.15;0.60;;;;;;;;;;5011368;28;20610;-42
2021/08/06 03:56:01;;;;;;;0.40;0.32;;;;;;;;;;5012603;28;20030;-42
2021/08/06 03:58:29;;;;;;;2.05;0.38;;;;;;;;;;5027860;28;20022;-43
2021/08/06 04:00:55;;;;;;;0.50;0.40;;;;;;;;;;5027099;28;20030;-43
2021/08/06 04:03:22;;;;;;;0.60;0.60;;;;;;;;;;5027809;28;20097;-42
2021/08/06 04:05:48;;;;;;;4.90;0.60;;;;;;;;;;5011248;28;20037;-42
2021/08/06 04:08:16;;;;;;;0.43;0.43;;;;;;;;;;5012497;28;20064;-42
2021/08/06 04:10:47;;;;;;;0.80;0.30;;;;;;;;;;5027691;28;20034;-42
2021/08/06 04:13:13;;;;;;;3.92;1.02;;;;;;;;;;5012792;28;20543;-42
2021/08/06 04:15:38;;;;;;;1.50;0.25;;;;;;;;;;5027590;28;20022;-42
2021/08/06 04:18:04;;;;;;;0.73;0.20;;;;;;;;;;5027700;28;20029;-42
2021/08/06 04:20:30;;;;;;;3.13;0.50;;;;;;;;;;5027773;28;20026;-42
2021/08/06 04:22:55;;;;;;;1.00;0.30;;;;;;;;;;5027434;28;20054;-42
2021/08/06 04:25:22;;;;;;;2.50;0.45;;;;;;;;;;5027403;28;20045;-42
2021/08/06 04:27:48;;;;;;;3.13;0.30;;;;;;;;;;5027645;28;20026;-42
2021/08/06 04:30:14;;;;;;;3.30;0.55;;;;;;;;;;5027594;28;20018;-42
2021/08/06 04:32:40;;;;;;;1.20;0.40;;;;;;;;;;5027381;28;20026;-42
2021/08/06 04:35:05;;;;;;;2.15;0.30;;;;;;;;;;5011070;28;20473;-42
2021/08/06 04:37:31;;;;;;;2.10;0.25;;;;;;;;;;5012299;28;20104;-42
2021/08/06 04:39:57;;;;;;;0.85;0.30;;;;;;;;;;5027398;28;20113;-42
2021/08/06 04:42:22;;;;;;;0.35;0.32;;;;;;;;;;5027524;28;20030;-42
2021/08/06 04:44:48;;;;;;;0.60;0.40;;;;;;;;;;5012047;28;20029;-42
2021/08/06 04:47:13;;;;;;;2.55;0.55;;;;;;;;;;5011027;28;20365;-42
2021/08/06 04:49:39;;;;;;;0.80;0.30;;;;;;;;;;5027337;28;20014;-42
2021/08/06 04:52:06;;;;;;;0.25;0.20;;;;;;;;;;5027374;28;20033;-43
2021/08/06 04:54:31;;;;;;;0.80;0.30;;;;;;;;;;5027270;28;20026;-42
2021/08/06 04:56:57;;;;;;;1.15;0.60;;;;;;;;;;5027304;28;20030;-42
2021/08/06 04:59:22;;;;;;;1.17;0.28;;;;;;;;;;5027301;28;20384;-42
2021/08/06 05:01:48;;;;;;;0.63;0.20;;;;;;;;;;5027263;28;20034;-43
2021/08/06 05:04:14;;;;;;;3.60;0.30;;;;;;;;;;5027335;28;20018;-43
2021/08/06 05:06:40;;;;;;;0.20;0.20;;;;;;;;;;5026987;28;20042;-42
2021/08/06 05:09:05;;;;;;;0.35;0.20;;;;;;;;;;5012298;28;20010;-42
2021/08/06 05:11:31;;;;;;;1.45;0.30;;;;;;;;;;5028236;28;20030;-42
2021/08/06 05:13:57;;;;;;;1.85;0.30;;;;;;;;;;5014232;28;20021;-42
2021/08/06 05:16:25;;;;;;;0.30;0.30;;;;;;;;;;5030604;28;20469;-41
2021/08/06 05:18:50;;;;;;;0.65;0.43;;;;;;;;;;5014233;28;20014;-42
2021/08/06 05:21:16;;;;;;;1.75;0.30;;;;;;;;;;5030523;28;20044;-42
2021/08/06 05:23:43;;;;;;;0.47;0.30;;;;;;;;;;5013864;28;20058;-42
2021/08/06 05:26:09;;;;;;;0.30;0.30;;;;;;;;;;5030462;28;20153;-42
2021/08/06 05:28:34;;;;;;;1.55;0.25;;;;;;;;;;5030367;28;20116;-41
2021/08/06 05:31:00;;;;;;;0.40;0.40;;;;;;;;;;5030329;28;20066;-42
2021/08/06 05:33:25;;;;;;;1.02;0.20;;;;;;;;;;5030298;28;20376;-42
2021/08/06 05:35:51;;;;;;;0.57;0.40;;;;;;;;;;5030295;28;20125;-42
2021/08/06 05:38:17;;;;;;;2.65;0.60;;;;;;;;;;5015122;28;20146;-42
2021/08/06 05:40:44;;;;;;;3.67;0.50;;;;;;;;;;5013670;28;20034;-42
2021/08/06 05:43:13;;;;;;;0.73;0.43;;;;;;;;;;5014913;28;20026;-42
2021/08/06 05:45:39;;;;;;;2.92;0.30;;;;;;;;;;5030039;28;20107;-42
2021/08/06 05:48:07;;;;;;;0.35;0.30;;;;;;;;;;5013692;28;20061;-42
2021/08/06 05:50:38;;;;;;;;;;;;;;;;;;5030373;28;20026;-41
2021/08/06 05:53:07;;;;;;;3.20;0.38;;;;;;;;;;5030157;28;19921;-42
2021/08/06 05:55:33;;;;;;;0.40;0.20;;;;;;;;;;5013428;28;20018;-42
2021/08/06 05:58:03;;;;;;;0.30;0.30;;;;;;;;;;5013456;28;20034;-42
2021/08/06 06:00:29;;;;;;;0.52;0.30;;;;;;;;;;5014783;28;20024;-41
2021/08/06 06:03:04;;;;;;;0.80;0.50;;;;;;;;;;5029935;28;20083;-42
2021/08/06 06:05:51;;;;;;;0.55;0.35;;;;;;;;;;5013142;28;20037;-42
2021/08/06 06:08:16;;;;;;;0.60;0.20;;;;;;;;;;5014812;28;20033;-43
2021/08/06 06:10:42;;;;;;;1.08;0.32;;;;;;;;;;5014624;28;20025;-43
2021/08/06 06:13:08;;;;;;;1.85;0.50;;;;;;;;;;5013136;28;20516;-43
2021/08/06 06:15:34;;;;;;;0.60;0.43;;;;;;;;;;5029317;28;20026;-43
2021/08/06 06:18:00;;;;;;;0.75;0.28;;;;;;;;;;5029359;28;20033;-43
2021/08/06 06:20:27;;;;;;;0.38;0.30;;;;;;;;;;5012465;28;20071;-43
2021/08/06 06:22:54;;;;;;;0.93;0.20;;;;;;;;;;5027980;28;20049;-42
2021/08/06 06:25:20;;;;;;;2.42;0.40;;;;;;;;;;5014106;28;20042;-42
2021/08/06 06:28:07;;;;;;;0.52;0.45;;;;;;;;;;5029267;28;20036;-42
2021/08/06 06:30:52;;;;;;;0.65;0.50;;;;;;;;;;5013907;28;20095;-43
2021/08/06 06:33:18;;;;;;;0.40;0.35;;;;;;;;;;5029179;28;20124;-42
2021/08/06 06:35:47;;;;;;;1.38;0.40;;;;;;;;;;5014110;28;20026;-42
2021/08/06 06:38:13;;;;;;;0.85;0.30;;;;;;;;;;5029285;28;20117;-43
2021/08/06 06:40:39;;;;;;;0.32;0.32;;;;;;;;;;5028973;28;20014;-42
2021/08/06 06:43:15;;;;;;;8.38;0.57;;;;;;;;;;5029093;28;20080;-42
2021/08/06 06:45:40;;;;;;;0.68;0.30;;;;;;;;;;5012413;28;20052;-42
2021/08/06 06:48:07;;;;;;;0.40;0.30;;;;;;;;;;5012505;28;20021;-44
2021/08/06 06:50:32;;;;;;;0.30;0.30;;;;;;;;;;5013699;28;20030;-42
2021/08/06 06:52:58;;;;;;;0.30;0.30;;;;;;;;;;5012422;28;20050;-42
2021/08/06 06:55:24;;;;;;;0.45;0.43;;;;;;;;;;5013825;28;20069;-42
2021/08/06 06:57:51;;;;;;;0.30;0.30;;;;;;;;;;5028835;28;20468;-42
2021/08/06 07:00:18;;;;;;;0.30;0.30;;;;;;;;;;5028743;28;20032;-43
2021/08/06 07:02:44;;;;;;;0.20;0.20;;;;;;;;;;5012269;28;20137;-42
2021/08/06 07:05:11;;;;;;;0.40;0.25;;;;;;;;;;5012129;28;20449;-42
2021/08/06 07:07:37;;;;;;;6.75;0.45;;;;;;;;;;5013542;28;20420;-42
2021/08/06 07:10:04;;;;;;;1.95;0.40;;;;;;;;;;5028662;28;20036;-42
2021/08/06 07:12:32;;;;;;;0.40;0.20;;;;;;;;;;5012052;28;20129;-42
2021/08/06 07:15:00;;;;;;;1.35;0.20;;;;;;;;;;5013269;28;20109;-42
2021/08/06 07:17:26;;;;;;;0.40;0.30;;;;;;;;;;5028410;28;20387;-42
2021/08/06 07:19:51;;;;;;;0.45;0.40;;;;;;;;;;5028378;28;20109;-42
2021/08/06 07:22:17;;;;;;;0.20;0.20;;;;;;;;;;5028104;28;20029;-42
2021/08/06 07:24:42;;;;;;;5.50;0.38;;;;;;;;;;5011835;28;20034;-42
2021/08/06 07:27:08;;;;;;;0.63;0.32;;;;;;;;;;5011815;28;20040;-42
2021/08/06 07:29:34;;;;;;;2.00;0.40;;;;;;;;;;5028161;28;20033;-42
2021/08/06 07:31:59;;;;;;;0.63;0.47;;;;;;;;;;5011805;28;20018;-43
2021/08/06 07:34:25;;;;;;;0.20;0.20;;;;;;;;;;5027977;28;20036;-42
2021/08/06 07:36:51;;;;;;;0.30;0.30;;;;;;;;;;5011702;28;20108;-42
2021/08/06 07:39:16;;;;;;;0.35;0.30;;;;;;;;;;5028188;28;20462;-42
2021/08/06 07:41:42;;;;;;;0.57;0.32;;;;;;;;;;5028052;28;20028;-42
2021/08/06 07:44:07;;;;;;;0.40;0.30;;;;;;;;;;5011486;28;20033;-42
2021/08/06 07:46:33;;;;;;;0.75;0.30;;;;;;;;;;5011397;28;20038;-42
2021/08/06 07:48:58;;;;;;;1.85;0.22;;;;;;;;;;5028011;28;20053;-42
2021/08/06 07:51:24;;;;;;;1.90;0.52;;;;;;;;;;5011399;28;20354;-42
2021/08/06 07:53:49;;;;;;;0.45;0.35;;;;;;;;;;5011428;28;20030;-42
2021/08/06 07:56:15;;;;;;;1.75;0.50;;;;;;;;;;5011400;28;20026;-42
2021/08/06 07:58:41;;;;;;;0.73;0.20;;;;;;;;;;5027706;28;20021;-42
2021/08/06 08:01:06;;;;;;;2.05;0.40;;;;;;;;;;5011414;28;20049;-43
2021/08/06 08:03:32;;;;;;;0.40;0.35;;;;;;;;;;5011326;28;20503;-42
2021/08/06 08:05:59;;;;;;;0.93;0.60;;;;;;;;;;5011157;28;20117;-42
2021/08/06 08:08:25;;;;;;;0.57;0.30;;;;;;;;;;5027789;28;20037;-42
2021/08/06 08:10:50;;;;;;;0.28;0.28;;;;;;;;;;5011370;28;20032;-42
2021/08/06 08:13:19;;;;;;;1.88;0.50;;;;;;;;;;5011203;28;20083;-43
2021/08/06 08:15:49;;;;;;;4.20;0.52;;;;;;;;;;5011116;28;20077;-42
2021/08/06 08:18:14;;;;;;;0.82;0.30;;;;;;;;;;5027760;28;20061;-42
2021/08/06 08:20:40;;;;;;;0.47;0.25;;;;;;;;;;5011050;28;20469;-42
2021/08/06 08:23:06;;;;;;;1.20;0.28;;;;;;;;;;5010978;28;20046;-42
2021/08/06 08:25:33;;;;;;;4.63;1.08;;;;;;;;;;5010901;28;20542;-42
2021/08/06 08:27:58;;;;;;;3.53;0.65;;;;;;;;;;5027511;28;20033;-42
2021/08/06 08:30:24;;;;;;;0.35;0.20;;;;;;;;;;5027633;28;20049;-42
2021/08/06 08:32:49;;;;;;;0.93;0.45;;;;;;;;;;5027371;28;20544;-43
2021/08/06 08:35:15;;;;;;;0.38;0.38;;;;;;;;;;5012212;28;20037;-42
2021/08/06 08:37:40;;;;;;;0.43;0.38;;;;;;;;;;5027430;28;20153;-42
2021/08/06 08:40:07;;;;;;;0.30;0.30;;;;;;;;;;5027423;28;20108;-42
2021/08/06 08:42:35;;;;;;;0.63;0.63;;;;;;;;;;5027329;28;20065;-42
2021/08/06 08:45:02;;;;;;;0.75;0.50;;;;;;;;;;5027342;28;20056;-43
2021/08/06 08:47:28;;;;;;;0.40;0.30;;;;;;;;;;5029903;28;20030;-42
2021/08/06 08:49:54;;;;;;;1.45;0.50;;;;;;;;;;5031252;28;20131;-42
2021/08/06 08:52:21;;;;;;;0.40;0.40;;;;;;;;;;5031146;28;20029;-42
2021/08/06 08:54:46;;;;;;;2.22;0.80;;;;;;;;;;5014376;28;20447;-42
2021/08/06 08:57:17;;;;;;;0.80;0.43;;;;;;;;;;5031097;28;20117;-42
2021/08/06 08:59:42;;;;;;;0.70;0.40;;;;;;;;;;5014425;28;20103;-43
2021/08/06 09:02:09;;;;;;;1.58;0.40;;;;;;;;;;5030966;28;20109;-42
2021/08/06 09:04:35;;;;;;;2.28;0.40;;;;;;;;;;5030764;28;20037;-42
2021/08/06 09:07:00;;;;;;;2.47;0.80;;;;;;;;;;5015923;28;20041;-42
2021/08/06 09:09:35;;;;;;;2.03;0.70;;;;;;;;;;5014158;28;20057;-42
2021/08/06 09:12:46;;;;;;;3.80;0.50;;;;;;;;;;5003630;28;20492;-42
2021/08/06 09:15:45;;;;;;;4.65;0.80;;;;;;;;;;5030548;28;20034;-42
2021/08/06 09:18:29;;;;;;;1.08;0.50;;;;;;;;;;5015741;28;20037;-42
2021/08/06 09:20:55;;;;;;;2.88;0.70;;;;;;;;;;5015405;28;20042;-42
2021/08/06 09:23:44;;;;;;;0.82;0.80;;;;;;;;;;5015171;28;20077;-42
2021/08/06 09:26:28;;;;;;;0.95;0.57;;;;;;;;;;5015179;28;20045;-46
2021/08/06 09:29:21;;;;;;;4.05;1.10;;;;;;;;;;5015589;28;20073;-42
2021/08/06 09:31:52;;;;;;;4.20;1.00;;;;;;;;;;5012698;28;20038;-42
2021/08/06 09:34:23;;;;;;;5.13;0.90;;;;;;;;;;5015076;28;20120;-42
2021/08/06 09:37:01;;;;;;;5.15;0.98;;;;;;;;;;5014854;28;20497;-42
2021/08/06 09:39:33;;;;;;;3.05;0.77;;;;;;;;;;5015195;28;20030;-42
2021/08/06 09:41:58;;;;;;;2.85;0.63;;;;;;;;;;5014981;28;20034;-42
2021/08/06 09:44:25;;;;;;;1.25;0.45;;;;;;;;;;5013553;28;20044;-42
2021/08/06 09:46:51;;;;;;;3.47;1.00;;;;;;;;;;5015004;28;20038;-42
2021/08/06 09:49:20;;;;;;;0.93;0.75;;;;;;;;;;5014877;28;20025;-42
2021/08/06 09:51:46;;;;;;;2.08;0.82;;;;;;;;;;5014646;28;20405;-42
2021/08/06 09:54:22;;;;;;;1.38;1.10;;;;;;;;;;5014739;28;20101;-42
2021/08/06 09:57:00;;;;;;;2.28;1.20;;;;;;;;;;5014847;28;20049;-42
2021/08/06 09:59:27;;;;;;;1.08;0.80;;;;;;;;;;5013902;28;20033;-42
2021/08/06 10:02:10;;;;;;;5.78;1.30;;;;;;;;;;5014392;28;20052;-41
2021/08/06 10:04:36;;;;;;;2.30;1.10;;;;;;;;;;5014213;28;20051;-42
2021/08/06 10:07:02;;;;;;;1.52;1.20;;;;;;;;;;5014420;28;20033;-43
2021/08/06 10:09:27;;;;;;;4.15;0.95;;;;;;;;;;5014393;28;20105;-43
2021/08/06 10:11:53;;;;;;;2.65;0.80;;;;;;;;;;5014736;28;20048;-42
2021/08/06 10:14:18;;;;;;;1.30;1.00;;;;;;;;;;5014544;28;20029;-42
2021/08/06 10:16:44;;;;;;;1.38;1.08;;;;;;;;;;5014085;28;20022;-42
2021/08/06 10:19:10;;;;;;;2.85;0.90;;;;;;;;;;5014553;28;20030;-42
2021/08/06 10:21:35;;;;;;;4.93;1.10;;;;;;;;;;5029608;28;20030;-43
2021/08/06 10:24:01;;;;;;;5.05;1.63;;;;;;;;;;5014128;28;20071;-43
2021/08/06 10:26:27;;;;;;;15.05;1.80;;;;;;;;;;5014003;28;20488;-43
2021/08/06 10:28:53;;;;;;;1.83;1.25;;;;;;;;;;5014363;28;20033;-43
2021/08/06 10:31:22;;;;;;;2.13;1.05;;;;;;;;;;5014056;28;20057;-42
2021/08/06 10:34:03;;;;;;;4.32;1.90;;;;;;;;;;5014209;28;20034;-42
2021/08/06 10:36:38;;;;;;;5.03;1.58;;;;;;;;;;5014098;28;20099;-42
2021/08/06 10:39:04;;;;;;;1.35;1.13;;;;;;;;;;5013982;28;20022;-43
2021/08/06 10:41:47;;;;;;;2.03;0.98;;;;;;;;;;5013709;28;20380;-43
2021/08/06 10:44:12;;;;;;;3.90;1.30;;;;;;;;;;5013804;28;20030;-43
2021/08/06 10:47:05;;;;;;;6.13;1.30;;;;;;;;;;5013855;28;20029;-43
2021/08/06 10:49:31;;;;;;;2.13;1.27;;;;;;;;;;5013565;28;20083;-42
2021/08/06 10:52:15;;;;;;;2.28;1.52;;;;;;;;;;5013721;28;20029;-42
2021/08/06 10:54:41;;;;;;;1.40;1.30;;;;;;;;;;5013503;28;20025;-43
2021/08/06 10:57:13;;;;;;;8.93;1.60;;;;;;;;;;5013782;28;20029;-43
2021/08/06 10:59:40;;;;;;;7.93;1.38;;;;;;;;;;5013512;28;20026;-42
2021/08/06 11:02:05;;;;;;;3.03;1.60;;;;;;;;;;5013800;28;20049;-42
2021/08/06 11:04:31;;;;;;;1.75;1.40;;;;;;;;;;5028834;28;20490;-42
2021/08/06 11:06:57;;;;;;;2.85;1.02;;;;;;;;;;5013611;28;20384;-42
2021/08/06 11:09:29;;;;;;;5.20;2.13;;;;;;;;;;5028545;28;20499;-42
2021/08/06 11:12:00;;;;;;;1.50;1.08;;;;;;;;;;5013614;28;20036;-43
2021/08/06 11:14:25;;;;;;;3.65;1.35;;;;;;;;;;5013474;28;20046;-42
2021/08/06 11:17:09;;;;;;;2.03;1.30;;;;;;;;;;5012715;28;20025;-42
2021/08/06 11:19:42;;;;;;;2.70;1.63;;;;;;;;;;5013386;28;20026;-42
2021/08/06 11:22:09;;;;;;;1.23;1.13;;;;;;;;;;5013286;28;20030;-42
2021/08/06 11:24:36;;;;;;;5.28;1.35;;;;;;;;;;5013226;28;20070;-42
2021/08/06 11:27:03;;;;;;;2.65;1.17;;;;;;;;;;5013056;28;20069;-43
2021/08/06 11:29:28;;;;;;;3.55;1.35;;;;;;;;;;5012723;28;20358;-42
2021/08/06 11:32:04;;;;;;;3.33;1.13;;;;;;;;;;5012901;28;20041;-42
2021/08/06 11:34:49;;;;;;;2.42;1.25;;;;;;;;;;5012871;28;20034;-43
2021/08/06 11:37:14;;;;;;;1.85;0.93;;;;;;;;;;5012991;28;20045;-43
2021/08/06 11:39:39;;;;;;;13.65;1.80;;;;;;;;;;5012821;28;20021;-42
2021/08/06 11:42:10;;;;;;;3.45;1.30;;;;;;;;;;5012666;28;20041;-42
2021/08/06 11:44:35;;;;;;;5.20;1.17;;;;;;;;;;5012655;28;20112;-43
2021/08/06 11:47:00;;;;;;;3.65;1.45;;;;;;;;;;5012734;28;20049;-42
2021/08/06 11:49:26;;;;;;;5.95;1.25;;;;;;;;;;5012768;28;20018;-42
2021/08/06 11:51:53;;;;;;;2.58;1.15;;;;;;;;;;5012693;28;20030;-43
2021/08/06 11:54:19;;;;;;;3.83;1.30;;;;;;;;;;5012982;28;20029;-43
2021/08/06 11:56:54;;;;;;;4.22;1.23;;;;;;;;;;5011275;28;20515;-42
2021/08/06 11:59:20;;;;;;;5.53;1.63;;;;;;;;;;5012633;28;20037;-42
2021/08/06 12:01:46;;;;;;;1.10;0.90;;;;;;;;;;5012157;28;20026;-43
2021/08/06 12:04:11;;;;;;;4.53;1.40;;;;;;;;;;5012483;28;20113;-42
2021/08/06 12:06:44;;;;;;;7.68;1.75;;;;;;;;;;5012541;28;20026;-43
2021/08/06 12:09:09;;;;;;;3.42;1.60;;;;;;;;;;5012574;28;20465;-43
2021/08/06 12:11:42;;;;;;;2.10;1.50;;;;;;;;;;5011180;28;20037;-43
2021/08/06 12:14:08;;;;;;;6.13;1.23;;;;;;;;;;5012699;28;20127;-43
2021/08/06 12:16:37;;;;;;;3.72;1.20;;;;;;;;;;5012454;28;20469;-42
2021/08/06 12:19:03;;;;;;;6.00;1.33;;;;;;;;;;5012759;28;20113;-42
2021/08/06 12:21:32;;;;;;;2.17;1.17;;;;;;;;;;5013515;28;20362;-43
2021/08/06 12:24:02;;;;;;;5.70;1.55;;;;;;;;;;5016231;28;20050;-43
2021/08/06 12:26:34;;;;;;;1.45;1.02;;;;;;;;;;5016371;28;20457;-43
2021/08/06 12:29:13;;;;;;;2.63;0.98;;;;;;;;;;5016299;28;20057;-42
2021/08/06 12:31:49;;;;;;;2.00;1.10;;;;;;;;;;5016480;28;20107;-42
2021/08/06 12:34:17;;;;;;;5.95;1.10;;;;;;;;;;5016503;28;20026;-43
2021/08/06 12:36:55;;;;;;;3.35;1.25;;;;;;;;;;5016145;28;20026;-42
2021/08/06 12:39:20;;;;;;;1.60;1.10;;;;;;;;;;5016176;28;20037;-43
2021/08/06 12:41:46;;;;;;;2.15;1.17;;;;;;;;;;5016327;28;20022;-43
2021/08/06 12:44:18;;;;;;;5.28;1.23;;;;;;;;;;5016206;28;20156;-43
2021/08/06 12:46:58;;;;;;;4.65;1.13;;;;;;;;;;5015929;28;20499;-43
2021/08/06 12:49:28;;;;;;;1.55;1.08;;;;;;;;;;5016114;28;20030;-43
2021/08/06 12:52:00;;;;;;;3.35;1.65;;;;;;;;;;5015912;28;20068;-43
2021/08/06 12:54:33;;;;;;;3.10;1.13;;;;;;;;;;5015996;28;20500;-43
2021/08/06 12:56:59;;;;;;;5.63;1.30;;;;;;;;;;5015929;28;20483;-43
2021/08/06 12:59:25;;;;;;;4.00;1.15;;;;;;;;;;5016049;28;20062;-43
2021/08/06 13:01:50;;;;;;;1.77;1.02;;;;;;;;;;5015669;28;20388;-42
2021/08/06 13:04:31;;;;;;;8.85;1.20;;;;;;;;;;5015568;28;20026;-43
2021/08/06 13:06:57;;;;;;;1.80;1.13;;;;;;;;;;5015571;28;20669;-43
2021/08/06 13:09:37;;;;;;;4.65;1.23;;;;;;;;;;5015931;28;20018;-42
2021/08/06 13:12:11;;;;;;;1.45;1.17;;;;;;;;;;5015470;28;20038;-43
2021/08/06 13:14:40;;;;;;;5.15;1.13;;;;;;;;;;5015441;28;20452;-42
2021/08/06 13:17:05;;;;;;;2.45;1.40;;;;;;;;;;5015763;28;20033;-42
2021/08/06 13:19:30;;;;;;;3.08;1.27;;;;;;;;;;5015535;28;20022;-42
2021/08/06 13:22:00;;;;;;;3.05;1.42;;;;;;;;;;5015421;28;20056;-43
2021/08/06 13:24:27;;;;;;;3.45;1.00;;;;;;;;;;5015159;28;20045;-43
2021/08/06 13:26:52;;;;;;;4.57;1.60;;;;;;;;;;5015408;28;20088;-42
2021/08/06 13:29:17;;;;;;;3.30;1.55;;;;;;;;;;5015282;28;20033;-43
2021/08/06 13:31:43;;;;;;;4.10;1.08;;;;;;;;;;5015067;28;20101;-43
2021/08/06 13:34:08;;;;;;;5.93;1.35;;;;;;;;;;5015252;28;20030;-43
2021/08/06 13:36:33;;;;;;;3.50;1.30;;;;;;;;;;5015321;28;20096;-42
2021/08/06 13:38:59;;;;;;;2.33;1.33;;;;;;;;;;5030309;28;20060;-42
2021/08/06 13:41:24;;;;;;;1.38;1.17;;;;;;;;;;5015052;28;20539;-42
2021/08/06 13:43:53;;;;;;;2.97;1.20;;;;;;;;;;5015129;28;20084;-42
2021/08/06 13:46:18;;;;;;;3.35;1.10;;;;;;;;;;5015108;28;20061;-42
2021/08/06 13:48:43;;;;;;;1.33;0.90;;;;;;;;;;5014800;28;20068;-43
2021/08/06 13:51:09;;;;;;;1.77;0.95;;;;;;;;;;5015165;28;20033;-43
2021/08/06 13:53:36;;;;;;;4.38;1.13;;;;;;;;;;5029948;28;20026;-42
2021/08/06 13:56:02;;;;;;;1.27;0.85;;;;;;;;;;5014770;28;20025;-43
2021/08/06 13:58:31;;;;;;;1.67;0.98;;;;;;;;;;5015342;28;20030;-42
2021/08/06 14:00:56;;;;;;;2.80;1.15;;;;;;;;;;5014629;28;20017;-43
2021/08/06 14:03:21;;;;;;;3.33;1.00;;;;;;;;;;5014613;28;20437;-43
2021/08/06 14:05:47;;;;;;;2.92;1.10;;;;;;;;;;5014445;28;20041;-43
2021/08/06 14:08:13;;;;;;;1.17;1.02;;;;;;;;;;5014755;28;20018;-43
2021/08/06 14:10:38;;;;;;;2.65;1.83;;;;;;;;;;5014441;28;20026;-43
2021/08/06 14:13:04;;;;;;;5.32;1.60;;;;;;;;;;5014445;28;20021;-44
2021/08/06 14:15:29;;;;;;;1.75;0.90;;;;;;;;;;5014292;28;20022;-43
2021/08/06 14:17:55;;;;;;;4.68;1.00;;;;;;;;;;5014286;28;20037;-44
2021/08/06 14:20:21;;;;;;;2.25;0.93;;;;;;;;;;5014294;28;20026;-43
2021/08/06 14:22:46;;;;;;;4.40;0.90;;;;;;;;;;5014056;28;20116;-43
2021/08/06 14:25:12;;;;;;;4.53;1.17;;;;;;;;;;5014399;28;20465;-43
2021/08/06 14:27:37;;;;;;;3.20;1.10;;;;;;;;;;5029368;28;20460;-42
2021/08/06 14:30:03;;;;;;;1.65;0.60;;;;;;;;;;5014111;28;20034;-42
2021/08/06 14:32:28;;;;;;;16.33;1.50;;;;;;;;;;5014078;28;20030;-42
2021/08/06 14:34:54;;;;;;;1.40;0.93;;;;;;;;;;5012700;28;20014;-42
2021/08/06 14:37:19;;;;;;;1.23;0.85;;;;;;;;;;5013921;28;20038;-42
2021/08/06 14:39:45;;;;;;;2.30;1.42;;;;;;;;;;5013823;28;20026;-42
2021/08/06 14:42:10;;;;;;;3.10;1.05;;;;;;;;;;5013909;28;20033;-43
2021/08/06 14:44:36;;;;;;;6.45;1.83;;;;;;;;;;5012923;28;20039;-43
2021/08/06 14:47:02;;;;;;;1.50;0.95;;;;;;;;;;5013746;28;20049;-43
2021/08/06 14:49:27;;;;;;;1.63;1.10;;;;;;;;;;5028985;28;20037;-42